Time;durP1;ratioP1;P1;durP2;ratioP2;P2;SDS_P1;SDS_P2;PMS_P1;PMS_P2;Temp;Humidity;BMP_temperature;BMP_pressure;BME280_temperature;BME280_humidity;BME280_pressure;Samples;Min_cycle;Max_cycle;Signal;HPM_P1;HPM_P2
2023/06/09 00:02:13;;;;;;;0.82;0.50;;;;;;;18.58;100.00;99539.28;4989573;28;20032;-93
2023/06/09 00:04:41;;;;;;;0.73;0.50;;;;;;;18.42;100.00;99523.09;4977263;28;20461;-93
2023/06/09 00:07:07;;;;;;;0.88;0.52;;;;;;;18.44;100.00;99540.22;4963727;28;20026;-93
2023/06/09 00:09:32;;;;;;;0.73;0.73;;;;;;;18.46;100.00;99542.53;4953005;28;20080;-93
2023/06/09 00:11:58;;;;;;;0.60;0.55;;;;;;;18.45;100.00;99541.75;4959517;28;20043;-94
2023/06/09 00:14:24;;;;;;;0.68;0.30;;;;;;;18.30;100.00;99513.09;4973185;28;20045;-93
2023/06/09 00:16:51;;;;;;;0.75;0.75;;;;;;;18.32;100.00;99524.56;4963098;28;20035;-93
2023/06/09 00:19:17;;;;;;;1.40;1.25;;;;;;;18.25;100.00;99530.66;4983825;28;20038;-95
2023/06/09 00:21:49;;;;;;;0.43;0.43;;;;;;;18.14;100.00;99525.00;4976221;28;20485;-94
2023/06/09 00:24:20;;;;;;;1.63;0.80;;;;;;;18.06;100.00;99515.50;4975326;28;20486;-94
2023/06/09 00:26:47;;;;;;;1.10;0.82;;;;;;;17.99;100.00;99505.53;4969839;28;20045;-94
2023/06/09 00:29:13;;;;;;;0.55;0.55;;;;;;;18.01;100.00;99494.56;4957526;28;20045;-94
2023/06/09 00:31:41;;;;;;;0.63;0.60;;;;;;;18.04;100.00;99498.38;4974303;28;20129;-93
2023/06/09 00:34:08;;;;;;;0.30;0.22;;;;;;;18.04;100.00;99501.19;4964190;28;20399;-94
2023/06/09 00:36:33;;;;;;;0.55;0.55;;;;;;;17.97;100.00;99501.66;4994017;28;20037;-93
2023/06/09 00:38:59;;;;;;;0.73;0.70;;;;;;;17.95;100.00;99504.22;4972287;28;20125;-93
2023/06/09 00:41:25;;;;;;;0.98;0.95;;;;;;;17.92;100.00;99499.59;4981955;28;20041;-93
2023/06/09 00:43:55;;;;;;;1.23;0.68;;;;;;;17.62;100.00;99471.84;4978814;28;20103;-92
2023/06/09 00:46:22;;;;;;;0.05;0.05;;;;;;;17.66;100.00;99488.44;4977267;28;20046;-93
2023/06/09 00:48:48;;;;;;;2.40;1.55;;;;;;;17.64;100.00;99480.53;4994968;28;20044;-93
2023/06/09 00:51:16;;;;;;;0.80;0.80;;;;;;;17.59;100.00;99480.50;4967287;28;20169;-93
2023/06/09 00:53:42;;;;;;;1.27;1.17;;;;;;;17.52;100.00;99481.69;4978967;28;20548;-93
2023/06/09 00:56:08;;;;;;;1.50;1.00;;;;;;;17.42;100.00;99477.53;4968511;28;20034;-93
2023/06/09 00:58:34;;;;;;;1.65;1.10;;;;;;;17.45;100.00;99484.94;4979259;28;20034;-94
2023/06/09 01:01:00;;;;;;;1.02;0.50;;;;;;;17.37;100.00;99472.66;4967398;28;20058;-93
2023/06/09 01:03:26;;;;;;;0.70;0.70;;;;;;;17.17;100.00;99458.72;4959084;28;20037;-93
2023/06/09 01:06:09;;;;;;;0.85;0.73;;;;;;;17.26;100.00;99461.34;4997430;28;20124;-94
2023/06/09 01:08:40;;;;;;;0.90;0.90;;;;;;;17.33;100.00;99468.53;4999466;28;20512;-94
2023/06/09 01:11:30;;;;;;;1.52;1.42;;;;;;;17.30;100.00;99467.50;4983882;28;20042;-93
2023/06/09 01:14:13;;;;;;;1.55;1.05;;;;;;;17.18;100.00;99451.84;4988242;28;20062;-95
2023/06/09 01:16:52;;;;;;;0.50;0.50;;;;;;;17.25;100.00;99460.56;4992092;28;20033;-94
2023/06/09 01:19:31;;;;;;;0.52;0.50;;;;;;;17.24;100.00;99452.66;4983260;28;20505;-93
2023/06/09 01:22:00;;;;;;;2.25;1.10;;;;;;;17.24;100.00;99458.25;4971933;28;20121;-93
2023/06/09 01:24:45;;;;;;;0.77;0.77;;;;;;;17.04;100.00;99439.50;4966689;28;20494;-93
2023/06/09 01:27:12;;;;;;;0.70;0.70;;;;;;;17.08;100.00;99453.28;4954343;28;20073;-93
2023/06/09 01:29:40;;;;;;;1.15;0.65;;;;;;;17.02;100.00;99455.25;4975099;28;20121;-94
2023/06/09 01:32:07;;;;;;;3.10;1.58;;;;;;;16.92;100.00;99428.66;4993349;28;20026;-93
2023/06/09 01:34:33;;;;;;;1.27;0.57;;;;;;;17.01;100.00;99446.09;4972536;28;20034;-93
2023/06/09 01:37:00;;;;;;;0.75;0.75;;;;;;;16.88;100.00;99422.53;4973758;28;20428;-93
2023/06/09 01:39:27;;;;;;;0.93;0.57;;;;;;;17.05;100.00;99435.44;4989461;28;20042;-92
2023/06/09 01:41:53;;;;;;;0.45;0.45;;;;;;;17.03;100.00;99431.56;4980221;28;20057;-93
2023/06/09 01:44:19;;;;;;;0.65;0.65;;;;;;;17.02;100.00;99427.25;4975104;28;20568;-92
2023/06/09 01:46:46;;;;;;;1.65;1.33;;;;;;;17.07;100.00;99432.09;4979551;28;20482;-93
2023/06/09 01:49:28;;;;;;;0.43;0.43;;;;;;;17.15;100.00;99433.97;4982868;28;20054;-94
2023/06/09 01:52:05;;;;;;;1.33;0.65;;;;;;;17.15;100.00;99441.59;4981706;28;20050;-94
2023/06/09 01:54:34;;;;;;;0.93;0.85;;;;;;;17.18;100.00;99438.59;4973126;28;20034;-94
2023/06/09 01:57:22;;;;;;;0.50;0.50;;;;;;;17.09;100.00;99435.97;4971591;28;20314;-93
2023/06/09 01:59:53;;;;;;;1.75;0.82;;;;;;;17.09;100.00;99441.56;4990984;28;20045;-94
2023/06/09 02:02:21;;;;;;;1.20;0.95;;;;;;;17.09;100.00;99443.59;4986236;28;20030;-93
2023/06/09 02:04:48;;;;;;;0.82;0.80;;;;;;;17.04;100.00;99438.72;4996477;28;20035;-93
2023/06/09 02:07:16;;;;;;;0.60;0.60;;;;;;;16.92;100.00;99421.03;4982578;28;20124;-93
2023/06/09 02:09:46;;;;;;;0.82;0.80;;;;;;;17.08;100.00;99445.63;4976709;28;20052;-93
2023/06/09 02:12:11;;;;;;;0.43;0.43;;;;;;;17.06;100.00;99445.38;5000552;28;20053;-94
2023/06/09 02:14:39;;;;;;;0.80;0.80;;;;;;;17.02;100.00;99446.84;4980080;28;20481;-93
2023/06/09 02:17:05;;;;;;;3.25;2.20;;;;;;;17.03;100.00;99453.97;4988290;28;20025;-93
2023/06/09 02:19:35;;;;;;;0.68;0.65;;;;;;;16.95;100.00;99450.09;4963195;28;20038;-92
2023/06/09 02:22:02;;;;;;;0.28;0.28;;;;;;;16.92;100.00;99453.88;4978687;28;20037;-92
2023/06/09 02:24:28;;;;;;;1.42;1.33;;;;;;;16.93;100.00;99463.81;4981710;28;20385;-93
2023/06/09 02:26:56;;;;;;;0.95;0.93;;;;;;;16.89;100.00;99471.69;4992606;28;20036;-93
2023/06/09 02:29:24;;;;;;;0.68;0.68;;;;;;;16.83;100.00;99470.84;4961644;28;20034;-93
2023/06/09 02:31:50;;;;;;;0.38;0.38;;;;;;;16.78;100.00;99472.34;4995241;28;20026;-93
2023/06/09 02:34:16;;;;;;;1.15;0.93;;;;;;;16.59;100.00;99459.91;4973326;28;20458;-93
2023/06/09 02:36:42;;;;;;;0.57;0.57;;;;;;;16.63;100.00;99475.22;5002205;28;20026;-92
2023/06/09 02:39:09;;;;;;;2.20;0.77;;;;;;;16.51;100.00;99470.72;4964365;28;20045;-93
2023/06/09 02:41:35;;;;;;;0.63;0.63;;;;;;;16.67;100.00;99489.78;4978959;28;20128;-93
2023/06/09 02:44:02;;;;;;;0.50;0.50;;;;;;;16.65;100.00;99489.50;4977651;28;20141;-93
2023/06/09 02:46:29;;;;;;;1.17;1.15;;;;;;;16.54;100.00;99469.72;4985987;28;20091;-93
2023/06/09 02:48:55;;;;;;;1.08;0.68;;;;;;;16.58;100.00;99478.72;4995136;28;20405;-93
2023/06/09 02:51:21;;;;;;;0.30;0.22;;;;;;;16.65;100.00;99497.91;4977154;28;20042;-93
2023/06/09 02:53:46;;;;;;;0.80;0.80;;;;;;;16.66;100.00;99493.84;4958065;28;20475;-93
2023/06/09 02:56:12;;;;;;;1.75;1.30;;;;;;;16.68;100.00;99496.94;4963594;28;20431;-93
2023/06/09 02:58:46;;;;;;;0.88;0.88;;;;;;;16.68;100.00;99502.53;4992077;28;20073;-93
2023/06/09 03:01:17;;;;;;;0.98;0.98;;;;;;;16.56;100.00;99494.44;4988509;28;20104;-94
2023/06/09 03:03:44;;;;;;;1.00;0.80;;;;;;;16.34;100.00;99462.13;4985168;28;20037;-94
2023/06/09 03:06:13;;;;;;;0.65;0.65;;;;;;;16.48;100.00;99482.91;5011152;28;20029;-93
2023/06/09 03:08:40;;;;;;;0.10;0.10;;;;;;;16.67;100.00;99511.41;4975473;28;20550;-92
2023/06/09 03:11:07;;;;;;;1.20;1.02;;;;;;;16.52;100.00;99480.66;4966015;28;20042;-91
2023/06/09 03:13:33;;;;;;;0.82;0.80;;;;;;;16.70;100.00;99511.19;5003398;28;20038;-95
2023/06/09 03:15:58;;;;;;;0.63;0.63;;;;;;;16.69;100.00;99517.31;4969792;28;20125;-95
2023/06/09 03:18:26;;;;;;;0.93;0.60;;;;;;;16.49;100.00;99487.25;4981241;28;20030;-93
2023/06/09 03:20:52;;;;;;;1.88;1.73;;;;;;;16.67;100.00;99520.59;4970918;28;20061;-94
2023/06/09 03:23:20;;;;;;;0.50;0.50;;;;;;;16.58;100.00;99503.91;4953391;28;20129;-94
2023/06/09 03:25:49;;;;;;;1.02;1.02;;;;;;;16.61;100.00;99519.75;4965994;28;20508;-92
2023/06/09 03:28:15;;;;;;;1.13;1.02;;;;;;;16.71;100.00;99523.94;4940492;28;20375;-93
2023/06/09 03:30:41;;;;;;;2.50;1.48;;;;;;;16.66;100.00;99527.44;4982007;28;20487;-93
2023/06/09 03:33:08;;;;;;;0.60;0.60;;;;;;;16.73;100.00;99543.84;4974683;28;20064;-94
2023/06/09 03:35:34;;;;;;;0.47;0.47;;;;;;;16.64;100.00;99538.38;4949302;28;20561;-93
2023/06/09 03:38:00;;;;;;;0.90;0.85;;;;;;;16.67;100.00;99548.59;4965219;28;20138;-94
2023/06/09 03:40:26;;;;;;;0.80;0.73;;;;;;;16.68;100.00;99558.53;4994806;28;20125;-92
2023/06/09 03:42:52;;;;;;;0.35;0.35;;;;;;;16.59;100.00;99544.66;4940059;28;20038;-93
2023/06/09 03:45:17;;;;;;;0.70;0.70;;;;;;;16.56;100.00;99540.03;4992712;28;20030;-94
2023/06/09 03:47:44;;;;;;;1.50;1.30;;;;;;;16.57;100.00;99547.19;4983679;28;20030;-94
2023/06/09 03:50:10;;;;;;;2.30;0.93;;;;;;;16.48;100.00;99530.50;4994070;28;20449;-94
2023/06/09 03:52:36;;;;;;;0.68;0.68;;;;;;;16.65;100.00;99553.91;4989527;28;20022;-91
2023/06/09 03:55:05;;;;;;;1.38;1.25;;;;;;;16.68;100.00;99550.13;4995801;28;20038;-92
2023/06/09 03:57:35;;;;;;;0.88;0.88;;;;;;;16.68;100.00;99540.97;4985985;28;20068;-94
2023/06/09 04:00:03;;;;;;;0.57;0.57;;;;;;;16.86;100.00;99560.28;4979622;28;20043;-93
2023/06/09 04:02:30;;;;;;;1.50;1.40;;;;;;;16.96;100.00;99566.50;5015392;28;20042;-92
2023/06/09 04:04:57;;;;;;;0.55;0.35;;;;;;;16.92;100.00;99546.31;4994968;28;20037;-92
2023/06/09 04:07:22;;;;;;;1.35;1.25;;;;;;;16.86;100.00;99529.47;4964500;28;20549;-92
2023/06/09 04:09:48;;;;;;;0.25;0.25;;;;;;;17.16;100.00;99558.06;4970550;28;20053;-93
2023/06/09 04:12:13;;;;;;;1.10;0.98;;;;;;;17.22;100.00;99567.31;4987002;28;20034;-93
2023/06/09 04:14:42;;;;;;;0.82;0.80;;;;;;;17.09;100.00;99539.66;4981889;28;20093;-92
2023/06/09 04:17:11;;;;;;;1.10;1.00;;;;;;;17.04;100.00;99515.13;4971330;28;20042;-92
2023/06/09 04:19:37;;;;;;;0.20;0.20;;;;;;;17.45;100.00;99569.06;4996797;28;20125;-92
2023/06/09 04:22:10;;;;;;;0.32;0.32;;;;;;;17.50;100.00;99561.97;4979488;28;20046;-92
2023/06/09 04:24:36;;;;;;;1.98;1.60;;;;;;;17.62;100.00;99558.03;4986461;28;20038;-93
2023/06/09 04:27:03;;;;;;;0.98;0.93;;;;;;;17.66;100.00;99567.75;4970982;28;20431;-93
2023/06/09 04:29:32;;;;;;;0.50;0.50;;;;;;;17.57;100.00;99545.50;4986679;28;20030;-92
2023/06/09 04:31:59;;;;;;;1.05;0.30;;;;;;;17.82;100.00;99557.16;4988336;28;20104;-92
2023/06/09 04:34:27;;;;;;;1.70;1.60;;;;;;;17.87;100.00;99553.63;5010285;28;20041;-93
2023/06/09 04:36:56;;;;;;;2.25;1.80;;;;;;;17.87;100.00;99542.41;4992639;28;20048;-93
2023/06/09 04:39:29;;;;;;;0.65;0.43;;;;;;;18.01;100.00;99564.72;4990022;28;20100;-92
2023/06/09 04:41:55;;;;;;;;;;;;;;;18.02;100.00;99565.47;4990136;28;20033;-94
2023/06/09 04:44:23;;;;;;;0.98;0.55;;;;;;;18.06;100.00;99560.41;4981490;28;19913;-91
2023/06/09 04:46:59;;;;;;;0.57;0.57;;;;;;;17.94;100.00;99553.94;4986983;28;20056;-92
2023/06/09 04:49:25;;;;;;;0.85;0.77;;;;;;;17.96;100.00;99559.03;5003375;28;20037;-91
2023/06/09 04:51:51;;;;;;;0.40;0.40;;;;;;;18.02;100.00;99566.25;4993639;28;20522;-91
2023/06/09 04:54:25;;;;;;;1.73;0.50;;;;;;;18.10;100.00;99563.75;5016709;28;20041;-92
2023/06/09 04:56:57;;;;;;;2.55;1.38;;;;;;;18.15;100.00;99568.66;4984442;28;20041;-92
2023/06/09 04:59:28;;;;;;;1.58;1.48;;;;;;;18.23;100.00;99569.72;4975536;28;21174;-92
2023/06/09 05:01:55;;;;;;;1.83;1.65;;;;;;;18.21;100.00;99546.97;4979526;28;20041;-92
2023/06/09 05:04:21;;;;;;;2.05;0.65;;;;;;;18.45;100.00;99557.81;4985806;28;20460;-91
2023/06/09 05:06:47;;;;;;;2.53;0.65;;;;;;;18.44;100.00;99562.66;4974838;28;20525;-91
2023/06/09 05:09:12;;;;;;;1.05;0.73;;;;;;;18.55;100.00;99562.78;5000400;28;20056;-92
2023/06/09 05:11:38;;;;;;;0.47;0.47;;;;;;;18.61;100.00;99574.81;4986807;28;20045;-91
2023/06/09 05:14:05;;;;;;;0.85;0.57;;;;;;;18.48;100.00;99556.84;4968722;28;20113;-94
2023/06/09 05:16:33;;;;;;;1.42;1.33;;;;;;;18.68;100.00;99587.63;4991964;28;20125;-94
2023/06/09 05:19:02;;;;;;;3.13;1.33;;;;;;;18.70;100.00;99573.81;4988020;28;20029;-96
2023/06/09 05:21:28;;;;;;;1.00;0.90;;;;;;;18.74;100.00;99590.44;4994301;28;20398;-92
2023/06/09 05:24:07;;;;;;;;;;;;;;;;;;;;;
2023/06/09 05:26:37;;;;;;;0.85;0.80;;;;;;;18.46;100.00;99542.53;5011460;28;20034;-93
2023/06/09 05:29:03;;;;;;;0.98;0.88;;;;;;;18.59;100.00;99557.69;4988522;28;20046;-93
2023/06/09 05:31:31;;;;;;;0.60;0.60;;;;;;;18.62;100.00;99550.28;4967550;28;20034;-92
2023/06/09 05:33:57;;;;;;;0.63;0.63;;;;;;;19.00;100.00;99588.25;4980018;28;20083;-92
2023/06/09 05:36:23;;;;;;;0.40;0.35;;;;;;;18.97;100.00;99561.16;4984607;28;20486;-93
2023/06/09 05:38:51;;;;;;;1.50;1.02;;;;;;;19.21;100.00;99581.16;4982572;28;20540;-93
2023/06/09 05:41:17;;;;;;;0.88;0.65;;;;;;;19.26;100.00;99571.97;5000239;28;20128;-93
2023/06/09 05:43:42;;;;;;;2.22;2.03;;;;;;;19.31;100.00;99571.22;4983639;28;20452;-94
2023/06/09 05:46:09;;;;;;;0.65;0.60;;;;;;;19.32;100.00;99578.38;4999801;28;20045;-91
2023/06/09 05:48:34;;;;;;;2.97;1.27;;;;;;;19.38;100.00;99595.25;4996394;28;20038;-93
2023/06/09 05:51:00;;;;;;;0.32;0.32;;;;;;;19.29;100.00;99582.19;4976427;28;20034;-93
2023/06/09 05:53:25;;;;;;;1.10;1.00;;;;;;;19.38;100.00;99603.69;4987300;28;20030;-92
2023/06/09 05:55:53;;;;;;;0.90;0.90;;;;;;;19.13;100.00;99574.47;4987529;28;20046;-94
2023/06/09 05:58:19;;;;;;;2.17;1.95;;;;;;;19.11;100.00;99585.47;4989251;28;20025;-95
2023/06/09 06:00:44;;;;;;;0.70;0.63;;;;;;;18.82;100.00;99552.16;4993442;28;20453;-93
2023/06/09 06:03:11;;;;;;;0.80;0.80;;;;;;;19.02;100.00;99594.13;4972543;28;20480;-94
2023/06/09 06:05:37;;;;;;;2.40;0.95;;;;;;;19.10;100.00;99587.53;4993631;28;20014;-95
2023/06/09 06:08:03;;;;;;;0.93;0.65;;;;;;;19.00;100.00;99574.22;4992962;28;20477;-94
2023/06/09 06:10:32;;;;;;;1.58;1.25;;;;;;;19.09;100.00;99577.53;4991620;28;20069;-93
2023/06/09 06:13:03;;;;;;;0.80;0.80;;;;;;;19.12;100.00;99569.38;5008356;28;20037;-93
2023/06/09 06:15:29;;;;;;;1.50;1.05;;;;;;;19.13;100.00;99566.03;4979315;28;20026;-95
2023/06/09 06:17:54;;;;;;;0.60;0.60;;;;;;;19.34;100.00;99575.81;4974739;28;20457;-95
2023/06/09 06:20:20;;;;;;;1.92;1.10;;;;;;;19.46;100.00;99574.59;4974666;28;20489;-94
2023/06/09 06:22:58;;;;;;;1.73;0.68;;;;;;;19.65;100.00;99593.81;4994853;28;20056;-95
2023/06/09 06:25:25;;;;;;;2.08;1.25;;;;;;;19.63;100.00;99562.59;4975902;28;20035;-94
2023/06/09 06:27:50;;;;;;;2.85;1.02;;;;;;;19.78;100.00;99558.25;4988125;28;20034;-95
2023/06/09 06:30:17;;;;;;;1.60;0.95;;;;;;;20.01;100.00;99553.38;4978610;28;20038;-95
2023/06/09 06:32:51;;;;;;;1.98;1.73;;;;;;;20.29;100.00;99578.72;4984298;28;20056;-94
2023/06/09 06:35:23;;;;;;;1.15;1.02;;;;;;;20.38;100.00;99586.91;4956589;28;20046;-94
2023/06/09 06:37:49;;;;;;;1.40;1.30;;;;;;;20.43;100.00;99584.03;4950332;28;20051;-93
2023/06/09 06:40:15;;;;;;;1.40;1.30;;;;;;;20.38;100.00;99576.38;4988549;28;20299;-93
2023/06/09 06:42:40;;;;;;;1.25;1.10;;;;;;;20.45;100.00;99567.41;4979061;28;20490;-93
2023/06/09 06:45:14;;;;;;;1.90;1.75;;;;;;;20.42;100.00;99554.34;4992633;28;20060;-93
2023/06/09 06:47:43;;;;;;;0.80;0.75;;;;;;;20.56;100.00;99568.66;4977570;28;20038;-94
2023/06/09 06:50:09;;;;;;;2.15;1.45;;;;;;;20.89;100.00;99591.84;4974947;28;20042;-91
2023/06/09 06:52:35;;;;;;;1.75;1.45;;;;;;;20.98;100.00;99592.84;4976006;28;20513;-92
2023/06/09 06:55:01;;;;;;;0.60;0.60;;;;;;;20.88;100.00;99586.72;4973953;28;20077;-91
2023/06/09 06:57:27;;;;;;;0.70;0.70;;;;;;;20.79;100.00;99581.38;4972903;28;20085;-92
2023/06/09 06:59:53;;;;;;;1.77;0.63;;;;;;;20.80;100.00;99582.91;4955634;28;20073;-92
2023/06/09 07:02:21;;;;;;;1.27;1.17;;;;;;;20.64;100.00;99561.19;4953198;28;20498;-94
2023/06/09 07:04:50;;;;;;;0.93;0.93;;;;;;;20.58;100.00;99571.72;4988955;28;20042;-95
2023/06/09 07:07:16;;;;;;;1.30;1.20;;;;;;;20.84;100.00;99598.28;4959081;28;20044;-93
2023/06/09 07:09:42;;;;;;;1.52;1.25;;;;;;;20.80;100.00;99577.28;5015073;28;20041;-92
2023/06/09 07:12:08;;;;;;;1.02;0.95;;;;;;;21.07;100.00;99587.66;4972846;28;20065;-93
2023/06/09 07:14:33;;;;;;;0.82;0.82;;;;;;;21.42;100.00;99608.78;4981534;28;20042;-93
2023/06/09 07:16:59;;;;;;;0.98;0.80;;;;;;;21.31;100.00;99589.88;4993278;28;20037;-93
2023/06/09 07:19:25;;;;;;;1.30;1.17;;;;;;;21.22;100.00;99567.63;4999353;28;20452;-93
2023/06/09 07:21:50;;;;;;;1.77;1.25;;;;;;;21.58;100.00;99605.09;4987736;28;20052;-93
2023/06/09 07:24:16;;;;;;;2.30;1.73;;;;;;;21.56;100.00;99602.03;4992735;28;20033;-93
2023/06/09 07:26:42;;;;;;;1.45;1.05;;;;;;;21.65;100.00;99619.41;4962186;28;20037;-94
2023/06/09 07:29:07;;;;;;;0.68;0.68;;;;;;;21.67;100.00;99601.97;4988477;28;20399;-93
2023/06/09 07:31:39;;;;;;;0.57;0.55;;;;;;;21.69;100.00;99588.06;4970142;28;20042;-94
2023/06/09 07:34:07;;;;;;;0.50;0.50;;;;;;;21.58;100.00;99568.41;4989323;28;20061;-94
2023/06/09 07:36:37;;;;;;;5.95;1.95;;;;;;;21.49;100.00;99563.84;4975131;28;20175;-94
2023/06/09 07:39:31;;;;;;;1.65;1.55;;;;;;;21.76;100.00;99610.09;4963252;28;20486;-93
2023/06/09 07:42:07;;;;;;;;;;;;;;;;;;;;;
2023/06/09 07:44:37;;;;;;;4.22;1.75;;;;;;;21.91;100.00;99584.31;4974774;28;20038;-94
2023/06/09 07:47:03;;;;;;;3.42;1.13;;;;;;;22.01;100.00;99588.34;4997690;28;20100;-95
2023/06/09 07:49:28;;;;;;;1.38;1.27;;;;;;;21.82;100.00;99579.78;4983305;28;20038;-95
2023/06/09 07:51:55;;;;;;;0.55;0.55;;;;;;;21.93;100.00;99604.34;4981960;28;20038;-94
2023/06/09 07:54:21;;;;;;;2.63;2.00;;;;;;;22.20;100.00;99623.88;4972169;28;20040;-94
2023/06/09 07:56:49;;;;;;;0.63;0.63;;;;;;;22.36;100.00;99590.38;4971266;28;20413;-93
2023/06/09 07:59:18;;;;;;;1.15;1.05;;;;;;;22.78;100.00;99590.44;4995265;28;20489;-93
2023/06/09 11:58:57;;;;;;;2.08;0.52;;;;;;;27.00;63.65;99460.81;1490599;26;20073;-92
2023/06/09 12:01:29;;;;;;;0.30;0.30;;;;;;;27.40;62.12;99488.81;4987712;28;20452;-91
2023/06/09 12:03:58;;;;;;;1.48;0.77;;;;;;;27.60;62.19;99480.13;5010105;28;20045;-92
2023/06/09 12:06:25;;;;;;;0.85;0.85;;;;;;;27.77;68.32;99474.63;4989093;28;20022;-91
2023/06/09 12:09:18;;;;;;;0.10;0.10;;;;;;;28.05;71.34;99481.44;5005278;28;20128;-92
2023/06/09 12:12:05;;;;;;;0.68;0.68;;;;;;;28.17;69.11;99489.06;4994758;28;20030;-92
2023/06/09 12:14:32;;;;;;;0.75;0.75;;;;;;;27.76;71.27;99447.44;4989719;28;20332;-93
2023/06/09 12:16:58;;;;;;;0.68;0.60;;;;;;;28.20;70.31;99478.59;4983993;28;20042;-92
2023/06/09 12:19:23;;;;;;;0.75;0.73;;;;;;;27.99;63.21;99458.06;5021339;28;20079;-92
2023/06/09 12:21:49;;;;;;;1.13;0.82;;;;;;;28.17;63.71;99462.63;5005568;28;20497;-93
2023/06/09 12:24:15;;;;;;;1.38;0.50;;;;;;;28.30;60.48;99473.81;5021660;28;20033;-93
2023/06/09 12:26:44;;;;;;;0.98;0.95;;;;;;;28.59;61.67;99471.47;5010725;28;20040;-92
2023/06/09 12:29:10;;;;;;;1.15;0.77;;;;;;;28.56;55.03;99461.19;4997888;28;20085;-93
2023/06/09 12:31:51;;;;;;;0.40;0.40;;;;;;;28.64;61.58;99462.66;5006578;28;20044;-92
2023/06/09 12:34:24;;;;;;;2.05;0.77;;;;;;;28.68;59.66;99445.91;5002241;28;20033;-93
2023/06/09 12:36:53;;;;;;;1.90;1.00;;;;;;;28.64;59.95;99462.66;4989881;28;20045;-92
2023/06/09 12:39:20;;;;;;;0.43;0.43;;;;;;;28.63;59.43;99474.69;5022743;28;20026;-93
2023/06/09 12:41:46;;;;;;;2.70;1.15;;;;;;;28.54;56.49;99436.09;5004183;28;20048;-93
2023/06/09 12:44:24;;;;;;;0.68;0.68;;;;;;;28.86;52.46;99468.91;5017086;28;20042;-92
2023/06/09 12:46:58;;;;;;;0.75;0.70;;;;;;;28.88;51.46;99457.66;4997665;28;20125;-91
2023/06/09 12:49:29;;;;;;;0.60;0.57;;;;;;;28.97;50.09;99457.03;5013360;28;20053;-91
2023/06/09 12:51:55;;;;;;;0.45;0.45;;;;;;;28.71;49.13;99450.50;5004824;28;20444;-92
2023/06/09 12:54:21;;;;;;;0.88;0.73;;;;;;;28.66;49.31;99454.31;5029508;28;20022;-92
2023/06/09 12:56:47;;;;;;;0.47;0.47;;;;;;;28.94;50.19;99458.19;4990854;28;20053;-92
2023/06/09 12:59:12;;;;;;;1.20;1.10;;;;;;;28.71;49.70;99427.66;4986222;28;20089;-92
2023/06/09 13:01:39;;;;;;;0.28;0.25;;;;;;;28.96;48.93;99455.50;5006230;28;20042;-92
2023/06/09 13:04:05;;;;;;;0.68;0.60;;;;;;;28.92;53.15;99446.59;4987145;28;20045;-92
2023/06/09 13:06:32;;;;;;;0.55;0.50;;;;;;;29.11;49.49;99453.34;4983947;28;20038;-91
2023/06/09 13:09:00;;;;;;;1.15;0.73;;;;;;;28.79;50.04;99438.31;4993035;28;20018;-92
2023/06/09 13:11:27;;;;;;;0.93;0.80;;;;;;;28.87;54.47;99456.91;4998502;28;20038;-92
2023/06/09 13:13:52;;;;;;;0.52;0.52;;;;;;;28.65;47.44;99438.50;4999242;28;20025;-92
2023/06/09 13:16:21;;;;;;;1.17;0.65;;;;;;;28.73;46.61;99459.25;4983152;28;20048;-92
2023/06/09 13:18:46;;;;;;;0.20;0.20;;;;;;;28.71;48.87;99459.06;5004925;28;20029;-93
2023/06/09 13:21:12;;;;;;;0.88;0.82;;;;;;;28.71;53.28;99419.09;5002358;28;20037;-93
2023/06/09 13:23:37;;;;;;;0.77;0.77;;;;;;;28.97;54.77;99411.34;4999996;28;20054;-92
2023/06/09 13:26:03;;;;;;;1.42;0.80;;;;;;;29.04;51.55;99441.94;5006993;28;20034;-93
2023/06/09 13:28:29;;;;;;;0.70;0.50;;;;;;;29.00;54.58;99430.16;4998991;28;20025;-93
2023/06/09 13:30:56;;;;;;;0.38;0.30;;;;;;;28.87;54.50;99416.19;5007929;28;20497;-92
2023/06/09 13:33:22;;;;;;;0.90;0.82;;;;;;;28.97;53.78;99437.03;5005938;28;20092;-93
2023/06/09 13:35:47;;;;;;;0.60;0.60;;;;;;;28.96;53.30;99430.56;5004064;28;20026;-92
2023/06/09 13:38:13;;;;;;;0.63;0.40;;;;;;;29.01;48.56;99455.31;5012264;28;20456;-92
2023/06/09 13:40:43;;;;;;;0.35;0.35;;;;;;;29.03;48.07;99452.63;5013340;28;20046;-92
2023/06/09 13:43:14;;;;;;;0.43;0.43;;;;;;;28.94;47.57;99432.50;4982783;28;20124;-91
2023/06/09 13:45:48;;;;;;;0.47;0.47;;;;;;;28.94;49.12;99441.06;5001053;28;20067;-92
2023/06/09 13:48:16;;;;;;;0.85;0.50;;;;;;;28.70;46.96;99416.84;5004313;28;20497;-94
2023/06/09 13:50:42;;;;;;;1.08;0.98;;;;;;;28.11;48.24;99402.19;5004515;28;20113;-95
2023/06/09 13:53:08;;;;;;;0.20;0.20;;;;;;;28.12;50.00;99395.16;5004408;28;20101;-95
2023/06/09 13:55:54;;;;;;;0.70;0.68;;;;;;;28.35;50.86;99406.50;5020215;28;20044;-94
2023/06/09 13:58:31;;;;;;;0.93;0.80;;;;;;;28.35;50.76;99415.78;4977396;28;20041;-94
2023/06/09 14:01:00;;;;;;;0.47;0.47;;;;;;;28.29;50.72;99409.56;5010151;28;20172;-93
2023/06/09 14:03:26;;;;;;;0.35;0.35;;;;;;;28.30;51.58;99413.16;4987220;28;20167;-94
2023/06/09 14:19:21;;;;;;;1.45;1.23;;;;;;;28.31;51.13;99426.84;4809222;26;20133;-87
2023/06/09 14:21:46;;;;;;;0.65;0.65;;;;;;;28.17;53.65;99419.88;5008725;28;20038;-88
2023/06/09 14:24:12;;;;;;;1.65;1.05;;;;;;;28.33;57.48;99414.88;4990657;28;20403;-89
2023/06/09 14:26:48;;;;;;;0.60;0.60;;;;;;;28.27;56.20;99429.31;4988785;28;20068;-88
2023/06/09 14:29:13;;;;;;;1.48;0.93;;;;;;;28.38;57.50;99428.94;5008450;28;20033;-88
2023/06/09 14:31:39;;;;;;;1.50;1.02;;;;;;;28.25;56.46;99414.91;5007228;28;20048;-88
2023/06/09 14:34:05;;;;;;;1.23;0.45;;;;;;;28.24;58.18;99413.38;5002873;28;20033;-89
2023/06/09 14:36:31;;;;;;;1.83;1.23;;;;;;;28.45;59.63;99411.03;5005371;28;20041;-88
2023/06/09 14:38:57;;;;;;;0.75;0.73;;;;;;;28.54;58.56;99418.22;4974231;28;20033;-88
2023/06/09 14:41:23;;;;;;;0.52;0.52;;;;;;;28.54;58.07;99421.84;4992056;28;20045;-88
2023/06/09 14:43:48;;;;;;;1.13;0.50;;;;;;;28.47;60.40;99416.91;5007040;28;20034;-90
2023/06/09 14:46:14;;;;;;;1.35;1.25;;;;;;;27.73;60.95;99410.78;5003399;28;20112;-88
2023/06/09 14:48:40;;;;;;;1.65;1.48;;;;;;;27.50;62.05;99416.47;4987926;28;20033;-88
2023/06/09 14:51:05;;;;;;;1.60;1.48;;;;;;;27.20;62.97;99416.44;5012073;28;20037;-96
2023/06/09 14:53:31;;;;;;;1.20;1.10;;;;;;;27.13;65.57;99423.66;5017158;28;20034;-96
2023/06/09 14:55:57;;;;;;;2.42;1.48;;;;;;;27.21;63.09;99418.75;4995911;28;20119;-96
2023/06/09 14:58:23;;;;;;;1.15;1.00;;;;;;;27.04;64.66;99431.97;4996711;28;20042;-96
2023/06/09 15:00:48;;;;;;;0.57;0.57;;;;;;;27.04;67.96;99420.59;5013012;28;20108;-96
2023/06/09 15:03:18;;;;;;;2.33;1.27;;;;;;;27.17;67.70;99417.59;5019002;28;20040;-96
2023/06/09 15:05:44;;;;;;;0.98;0.55;;;;;;;26.70;67.77;99404.53;5028684;28;20061;-96
2023/06/09 15:08:10;;;;;;;1.13;1.05;;;;;;;26.61;69.62;99390.84;5010886;28;20038;-96
2023/06/09 15:10:44;;;;;;;1.23;0.73;;;;;;;26.82;67.92;99394.31;5014755;28;20120;-96
2023/06/09 15:13:11;;;;;;;1.27;1.05;;;;;;;26.45;69.16;99406.34;5016376;28;20448;-96
2023/06/09 15:15:36;;;;;;;1.23;1.10;;;;;;;26.09;71.28;99414.84;5011974;28;20083;-95
2023/06/09 15:18:04;;;;;;;2.05;1.02;;;;;;;25.73;74.57;99422.56;5005520;28;20062;-95
2023/06/09 15:20:30;;;;;;;0.88;0.85;;;;;;;25.97;75.97;99422.16;5010286;28;20037;-96
2023/06/09 15:22:58;;;;;;;0.80;0.80;;;;;;;26.06;74.10;99398.16;4997455;28;20053;-96
2023/06/09 15:25:29;;;;;;;1.38;0.57;;;;;;;26.23;75.39;99413.47;4984292;28;20116;-96
2023/06/09 15:28:03;;;;;;;1.23;0.63;;;;;;;25.89;69.85;99402.22;4995957;28;20466;-88
2023/06/09 15:30:31;;;;;;;1.15;1.02;;;;;;;25.86;71.90;99411.88;4995829;28;20038;-87
2023/06/09 15:33:01;;;;;;;1.40;1.27;;;;;;;25.61;75.07;99405.06;5001121;28;20116;-88
2023/06/09 15:35:32;;;;;;;1.20;0.93;;;;;;;25.59;74.28;99389.91;5004177;28;20037;-88
2023/06/09 15:38:01;;;;;;;1.02;1.02;;;;;;;25.57;76.26;99395.38;4996214;28;20033;-88
2023/06/09 15:40:36;;;;;;;1.70;1.10;;;;;;;25.68;76.85;99410.03;4996681;28;20025;-88
2023/06/09 15:43:02;;;;;;;1.23;0.50;;;;;;;25.62;76.37;99389.53;4999528;28;20530;-88
2023/06/09 15:45:28;;;;;;;0.98;0.95;;;;;;;25.62;76.98;99395.22;4981802;28;20053;-88
2023/06/09 15:47:54;;;;;;;0.93;0.93;;;;;;;25.61;75.79;99393.69;4983029;28;20038;-87